Kezdőlap
METAR-TAF:

METAR-TAF

Repülőterek :

Litchfield Municipal Airport

Litchfield, Minnesota, Amerikai Egyesült Államok

földrajzi szélesség: 45-05-50N, földrajzi hosszúság: 094-30-26W, magasság: 348 m

Jelenlegi meteorológiai megfigyelések

A jelentés 32 perccel ezelõtt készült, 14:56 UTC
Nyugati szél 3 kt
Hőmérséklet -9°C
Páratartalom 85%
Légköri nyomás 1028 hPa
Látótávolság: 16.1 km

METAR: KLJF 061456Z AUTO 28003KT 10SM M09/M11 A3037 RMK AO2

Idő: 09:28 (15:28 UTC)


TAF: hiányzik

Meteorológiai megfigyelések és előrejelzések több, mint 4000 repülőtéren (METAR és TAF jelentéseket).

A térképen piros és sárga pontok jelzik az elérhető meteorológiai állomásokat.

Mozgassa az egeret a pont fölött, hogy megjelenjen az állomás neve.

Azután kattintson az időjárási megfigyelések és előrejelzések megtekintéséhez.

A térkép megváltoztatása: kattintson a fekete keresztel jelölt zöld gombra ráközelítéshez, a vonallal jelölt zöld gombra távolításhoz, vagy a zöld nyilakra a szomszédos térképek eléréséhez.


METAR-TAF: